sensor_id;sensor_type;location;lat;lon;timestamp;P1;durP1;ratioP1;P2;durP2;ratioP2
7154;SDS011;3619;53.784;10.440;2023-03-19T00:02:03;3.97;;;3.87;;
7154;SDS011;3619;53.784;10.440;2023-03-19T00:04:33;5.43;;;5.23;;
7154;SDS011;3619;53.784;10.440;2023-03-19T00:07:00;3.90;;;3.80;;
7154;SDS011;3619;53.784;10.440;2023-03-19T00:09:28;4.73;;;4.53;;
7154;SDS011;3619;53.784;10.440;2023-03-19T00:11:55;3.83;;;3.73;;
7154;SDS011;3619;53.784;10.440;2023-03-19T00:14:22;3.80;;;3.70;;
7154;SDS011;3619;53.784;10.440;2023-03-19T00:16:51;4.90;;;4.70;;
7154;SDS011;3619;53.784;10.440;2023-03-19T00:19:18;3.90;;;3.80;;
7154;SDS011;3619;53.784;10.440;2023-03-19T00:21:45;4.77;;;4.57;;
7154;SDS011;3619;53.784;10.440;2023-03-19T00:24:13;5.53;;;5.33;;
7154;SDS011;3619;53.784;10.440;2023-03-19T00:26:43;5.30;;;5.10;;
7154;SDS011;3619;53.784;10.440;2023-03-19T00:29:09;4.80;;;4.60;;
7154;SDS011;3619;53.784;10.440;2023-03-19T00:31:37;4.93;;;4.73;;
7154;SDS011;3619;53.784;10.440;2023-03-19T00:34:04;4.70;;;4.50;;
7154;SDS011;3619;53.784;10.440;2023-03-19T00:36:32;5.03;;;4.83;;
7154;SDS011;3619;53.784;10.440;2023-03-19T00:38:59;4.53;;;4.33;;
7154;SDS011;3619;53.784;10.440;2023-03-19T00:44:27;4.27;;;4.17;;
7154;SDS011;3619;53.784;10.440;2023-03-19T00:46:56;4.33;;;4.23;;
7154;SDS011;3619;53.784;10.440;2023-03-19T00:52:30;3.90;;;3.80;;
7154;SDS011;3619;53.784;10.440;2023-03-19T00:55:01;4.30;;;4.20;;
7154;SDS011;3619;53.784;10.440;2023-03-19T01:00:11;4.00;;;3.90;;
7154;SDS011;3619;53.784;10.440;2023-03-19T01:02:41;4.50;;;4.33;;
7154;SDS011;3619;53.784;10.440;2023-03-19T01:05:16;4.50;;;4.30;;
7154;SDS011;3619;53.784;10.440;2023-03-19T01:07:43;4.37;;;4.23;;
7154;SDS011;3619;53.784;10.440;2023-03-19T01:10:17;4.17;;;4.07;;
7154;SDS011;3619;53.784;10.440;2023-03-19T01:12:48;5.80;;;5.60;;
7154;SDS011;3619;53.784;10.440;2023-03-19T01:15:16;5.87;;;5.67;;
7154;SDS011;3619;53.784;10.440;2023-03-19T01:17:48;5.97;;;5.77;;
7154;SDS011;3619;53.784;10.440;2023-03-19T01:20:17;5.70;;;5.50;;
7154;SDS011;3619;53.784;10.440;2023-03-19T01:22:48;5.77;;;5.57;;
7154;SDS011;3619;53.784;10.440;2023-03-19T01:25:18;6.03;;;5.83;;
7154;SDS011;3619;53.784;10.440;2023-03-19T01:27:58;6.23;;;6.03;;
7154;SDS011;3619;53.784;10.440;2023-03-19T01:30:29;5.93;;;5.73;;
7154;SDS011;3619;53.784;10.440;2023-03-19T01:33:11;5.47;;;5.27;;
7154;SDS011;3619;53.784;10.440;2023-03-19T01:35:47;5.90;;;5.70;;
7154;SDS011;3619;53.784;10.440;2023-03-19T01:38:19;5.63;;;5.43;;
7154;SDS011;3619;53.784;10.440;2023-03-19T01:43:50;4.77;;;4.57;;
7154;SDS011;3619;53.784;10.440;2023-03-19T01:49:28;4.97;;;4.77;;
7154;SDS011;3619;53.784;10.440;2023-03-19T01:52:12;5.87;;;5.67;;
7154;SDS011;3619;53.784;10.440;2023-03-19T01:54:43;4.67;;;4.47;;
7154;SDS011;3619;53.784;10.440;2023-03-19T01:57:35;4.40;;;4.27;;
7154;SDS011;3619;53.784;10.440;2023-03-19T02:00:06;3.13;;;3.03;;
7154;SDS011;3619;53.784;10.440;2023-03-19T02:03:14;3.43;;;3.33;;
7154;SDS011;3619;53.784;10.440;2023-03-19T02:05:41;3.40;;;3.30;;
7154;SDS011;3619;53.784;10.440;2023-03-19T02:08:13;4.17;;;4.07;;
7154;SDS011;3619;53.784;10.440;2023-03-19T02:10:45;4.07;;;3.97;;
7154;SDS011;3619;53.784;10.440;2023-03-19T02:13:13;3.40;;;3.30;;
7154;SDS011;3619;53.784;10.440;2023-03-19T02:15:42;4.27;;;4.17;;
7154;SDS011;3619;53.784;10.440;2023-03-19T02:18:11;3.87;;;3.77;;
7154;SDS011;3619;53.784;10.440;2023-03-19T02:20:42;5.77;;;5.57;;
7154;SDS011;3619;53.784;10.440;2023-03-19T02:23:15;4.10;;;4.00;;
7154;SDS011;3619;53.784;10.440;2023-03-19T02:26:00;3.03;;;2.93;;
7154;SDS011;3619;53.784;10.440;2023-03-19T02:28:32;3.77;;;3.67;;
7154;SDS011;3619;53.784;10.440;2023-03-19T02:31:01;4.13;;;4.03;;
7154;SDS011;3619;53.784;10.440;2023-03-19T02:33:28;3.40;;;3.30;;
7154;SDS011;3619;53.784;10.440;2023-03-19T02:35:55;2.93;;;2.83;;
7154;SDS011;3619;53.784;10.440;2023-03-19T02:38:23;3.60;;;3.50;;
7154;SDS011;3619;53.784;10.440;2023-03-19T02:40:57;4.70;;;4.50;;
7154;SDS011;3619;53.784;10.440;2023-03-19T02:43:31;4.23;;;4.13;;
7154;SDS011;3619;53.784;10.440;2023-03-19T02:46:01;5.23;;;5.03;;
7154;SDS011;3619;53.784;10.440;2023-03-19T02:48:29;4.10;;;4.00;;
7154;SDS011;3619;53.784;10.440;2023-03-19T02:50:56;3.13;;;3.03;;
7154;SDS011;3619;53.784;10.440;2023-03-19T02:53:23;3.43;;;3.33;;
7154;SDS011;3619;53.784;10.440;2023-03-19T02:55:51;3.87;;;3.77;;
7154;SDS011;3619;53.784;10.440;2023-03-19T02:58:19;3.40;;;3.30;;
7154;SDS011;3619;53.784;10.440;2023-03-19T03:00:48;3.23;;;3.13;;
7154;SDS011;3619;53.784;10.440;2023-03-19T03:03:18;3.60;;;3.50;;
7154;SDS011;3619;53.784;10.440;2023-03-19T03:05:45;3.23;;;3.13;;
7154;SDS011;3619;53.784;10.440;2023-03-19T03:08:12;4.03;;;3.93;;
7154;SDS011;3619;53.784;10.440;2023-03-19T03:10:39;4.07;;;3.97;;
7154;SDS011;3619;53.784;10.440;2023-03-19T03:13:06;3.50;;;3.40;;
7154;SDS011;3619;53.784;10.440;2023-03-19T03:15:33;3.97;;;3.87;;
7154;SDS011;3619;53.784;10.440;2023-03-19T03:18:01;3.80;;;3.70;;
7154;SDS011;3619;53.784;10.440;2023-03-19T03:20:28;4.57;;;4.37;;
7154;SDS011;3619;53.784;10.440;2023-03-19T03:22:55;5.40;;;5.20;;
7154;SDS011;3619;53.784;10.440;2023-03-19T03:25:22;3.90;;;3.80;;
7154;SDS011;3619;53.784;10.440;2023-03-19T03:27:53;3.27;;;3.17;;
7154;SDS011;3619;53.784;10.440;2023-03-19T03:30:20;3.53;;;3.43;;
7154;SDS011;3619;53.784;10.440;2023-03-19T03:32:47;2.87;;;2.77;;
7154;SDS011;3619;53.784;10.440;2023-03-19T03:35:43;2.73;;;2.63;;
7154;SDS011;3619;53.784;10.440;2023-03-19T03:38:16;4.20;;;4.10;;
7154;SDS011;3619;53.784;10.440;2023-03-19T03:40:43;2.33;;;2.23;;
7154;SDS011;3619;53.784;10.440;2023-03-19T03:43:19;2.70;;;2.60;;
7154;SDS011;3619;53.784;10.440;2023-03-19T03:46:08;3.17;;;3.07;;
7154;SDS011;3619;53.784;10.440;2023-03-19T03:49:26;3.37;;;3.27;;
7154;SDS011;3619;53.784;10.440;2023-03-19T03:55:00;3.30;;;3.20;;
7154;SDS011;3619;53.784;10.440;2023-03-19T03:57:34;3.77;;;3.67;;
7154;SDS011;3619;53.784;10.440;2023-03-19T04:00:03;4.00;;;3.90;;
7154;SDS011;3619;53.784;10.440;2023-03-19T04:02:41;4.10;;;4.00;;
7154;SDS011;3619;53.784;10.440;2023-03-19T04:05:11;3.13;;;3.03;;
7154;SDS011;3619;53.784;10.440;2023-03-19T04:07:38;2.90;;;2.80;;
7154;SDS011;3619;53.784;10.440;2023-03-19T04:12:57;4.00;;;3.90;;
7154;SDS011;3619;53.784;10.440;2023-03-19T04:15:27;3.50;;;3.40;;
7154;SDS011;3619;53.784;10.440;2023-03-19T04:17:53;4.87;;;4.67;;
7154;SDS011;3619;53.784;10.440;2023-03-19T04:20:20;4.13;;;4.03;;
7154;SDS011;3619;53.784;10.440;2023-03-19T04:22:49;5.03;;;4.83;;
7154;SDS011;3619;53.784;10.440;2023-03-19T04:25:18;4.70;;;4.50;;
7154;SDS011;3619;53.784;10.440;2023-03-19T04:27:46;4.70;;;4.50;;
7154;SDS011;3619;53.784;10.440;2023-03-19T04:30:13;4.27;;;4.17;;
7154;SDS011;3619;53.784;10.440;2023-03-19T04:32:40;4.57;;;4.37;;
7154;SDS011;3619;53.784;10.440;2023-03-19T04:35:08;4.53;;;4.37;;
7154;SDS011;3619;53.784;10.440;2023-03-19T04:37:36;3.80;;;3.70;;
7154;SDS011;3619;53.784;10.440;2023-03-19T04:40:05;3.63;;;3.53;;
7154;SDS011;3619;53.784;10.440;2023-03-19T04:42:33;3.53;;;3.43;;
7154;SDS011;3619;53.784;10.440;2023-03-19T04:45:01;4.63;;;4.43;;
7154;SDS011;3619;53.784;10.440;2023-03-19T04:47:28;4.97;;;4.77;;
7154;SDS011;3619;53.784;10.440;2023-03-19T04:49:55;4.13;;;4.03;;
7154;SDS011;3619;53.784;10.440;2023-03-19T04:52:25;4.87;;;4.67;;
7154;SDS011;3619;53.784;10.440;2023-03-19T04:54:53;3.90;;;3.80;;
7154;SDS011;3619;53.784;10.440;2023-03-19T04:57:22;5.17;;;4.97;;
7154;SDS011;3619;53.784;10.440;2023-03-19T04:59:49;5.00;;;4.80;;
7154;SDS011;3619;53.784;10.440;2023-03-19T05:02:17;5.03;;;4.83;;
7154;SDS011;3619;53.784;10.440;2023-03-19T05:04:44;4.00;;;3.90;;
7154;SDS011;3619;53.784;10.440;2023-03-19T05:07:11;4.37;;;4.27;;
7154;SDS011;3619;53.784;10.440;2023-03-19T05:09:41;4.60;;;4.40;;
7154;SDS011;3619;53.784;10.440;2023-03-19T05:12:10;4.13;;;4.03;;
7154;SDS011;3619;53.784;10.440;2023-03-19T05:14:37;3.13;;;3.03;;
7154;SDS011;3619;53.784;10.440;2023-03-19T05:17:04;3.37;;;3.27;;
7154;SDS011;3619;53.784;10.440;2023-03-19T05:19:36;4.50;;;4.33;;
7154;SDS011;3619;53.784;10.440;2023-03-19T05:22:03;3.83;;;3.73;;
7154;SDS011;3619;53.784;10.440;2023-03-19T05:24:30;4.80;;;4.60;;
7154;SDS011;3619;53.784;10.440;2023-03-19T05:26:57;5.03;;;4.83;;
7154;SDS011;3619;53.784;10.440;2023-03-19T05:29:24;5.00;;;4.80;;
7154;SDS011;3619;53.784;10.440;2023-03-19T05:31:53;5.00;;;4.80;;
7154;SDS011;3619;53.784;10.440;2023-03-19T05:34:20;3.87;;;3.77;;
7154;SDS011;3619;53.784;10.440;2023-03-19T05:36:48;4.07;;;3.97;;
7154;SDS011;3619;53.784;10.440;2023-03-19T05:39:15;4.07;;;3.97;;
7154;SDS011;3619;53.784;10.440;2023-03-19T05:41:45;3.70;;;3.60;;
7154;SDS011;3619;53.784;10.440;2023-03-19T05:44:12;3.93;;;3.83;;
7154;SDS011;3619;53.784;10.440;2023-03-19T05:46:39;3.50;;;3.40;;
7154;SDS011;3619;53.784;10.440;2023-03-19T05:49:08;3.10;;;3.00;;
7154;SDS011;3619;53.784;10.440;2023-03-19T05:51:35;3.13;;;3.03;;
7154;SDS011;3619;53.784;10.440;2023-03-19T05:54:06;2.90;;;2.80;;
7154;SDS011;3619;53.784;10.440;2023-03-19T05:56:33;2.93;;;2.83;;
7154;SDS011;3619;53.784;10.440;2023-03-19T05:59:00;3.00;;;2.90;;
7154;SDS011;3619;53.784;10.440;2023-03-19T06:01:29;2.87;;;2.77;;
7154;SDS011;3619;53.784;10.440;2023-03-19T06:03:56;3.13;;;3.03;;
7154;SDS011;3619;53.784;10.440;2023-03-19T06:06:23;3.63;;;3.53;;
7154;SDS011;3619;53.784;10.440;2023-03-19T06:08:51;3.40;;;3.30;;
7154;SDS011;3619;53.784;10.440;2023-03-19T06:11:20;3.40;;;3.30;;
7154;SDS011;3619;53.784;10.440;2023-03-19T06:13:58;3.47;;;3.37;;
7154;SDS011;3619;53.784;10.440;2023-03-19T06:16:25;3.37;;;3.27;;
7154;SDS011;3619;53.784;10.440;2023-03-19T06:18:57;2.83;;;2.73;;
7154;SDS011;3619;53.784;10.440;2023-03-19T06:21:23;3.00;;;2.90;;
7154;SDS011;3619;53.784;10.440;2023-03-19T06:23:53;3.07;;;2.97;;
7154;SDS011;3619;53.784;10.440;2023-03-19T06:26:21;3.20;;;3.10;;
7154;SDS011;3619;53.784;10.440;2023-03-19T06:28:51;3.03;;;2.93;;
7154;SDS011;3619;53.784;10.440;2023-03-19T06:31:19;3.27;;;3.17;;
7154;SDS011;3619;53.784;10.440;2023-03-19T06:33:46;3.67;;;3.57;;
7154;SDS011;3619;53.784;10.440;2023-03-19T06:36:13;3.47;;;3.37;;
7154;SDS011;3619;53.784;10.440;2023-03-19T06:38:40;3.30;;;3.20;;
7154;SDS011;3619;53.784;10.440;2023-03-19T06:41:06;3.03;;;2.93;;
7154;SDS011;3619;53.784;10.440;2023-03-19T06:43:35;2.70;;;2.60;;
7154;SDS011;3619;53.784;10.440;2023-03-19T06:46:02;3.43;;;3.33;;
7154;SDS011;3619;53.784;10.440;2023-03-19T06:48:29;3.07;;;2.97;;
7154;SDS011;3619;53.784;10.440;2023-03-19T06:50:56;2.67;;;2.57;;
7154;SDS011;3619;53.784;10.440;2023-03-19T06:53:22;3.63;;;3.53;;
7154;SDS011;3619;53.784;10.440;2023-03-19T06:55:51;3.67;;;3.57;;
7154;SDS011;3619;53.784;10.440;2023-03-19T06:58:29;3.23;;;3.13;;
7154;SDS011;3619;53.784;10.440;2023-03-19T07:01:00;3.77;;;3.67;;
7154;SDS011;3619;53.784;10.440;2023-03-19T07:03:27;3.20;;;3.10;;
7154;SDS011;3619;53.784;10.440;2023-03-19T07:05:53;3.70;;;3.60;;
7154;SDS011;3619;53.784;10.440;2023-03-19T07:08:23;3.57;;;3.47;;
7154;SDS011;3619;53.784;10.440;2023-03-19T07:10:53;2.83;;;2.73;;
7154;SDS011;3619;53.784;10.440;2023-03-19T07:13:23;3.60;;;3.50;;
7154;SDS011;3619;53.784;10.440;2023-03-19T07:15:53;3.50;;;3.40;;
7154;SDS011;3619;53.784;10.440;2023-03-19T07:18:21;3.73;;;3.63;;
7154;SDS011;3619;53.784;10.440;2023-03-19T07:20:51;3.30;;;3.20;;
7154;SDS011;3619;53.784;10.440;2023-03-19T07:23:20;3.23;;;3.13;;
7154;SDS011;3619;53.784;10.440;2023-03-19T07:25:47;3.67;;;3.57;;
7154;SDS011;3619;53.784;10.440;2023-03-19T07:28:14;3.13;;;3.03;;
7154;SDS011;3619;53.784;10.440;2023-03-19T07:30:43;3.47;;;3.37;;
7154;SDS011;3619;53.784;10.440;2023-03-19T07:33:10;2.70;;;2.60;;
7154;SDS011;3619;53.784;10.440;2023-03-19T07:35:41;2.80;;;2.70;;
7154;SDS011;3619;53.784;10.440;2023-03-19T07:38:07;2.80;;;2.70;;
7154;SDS011;3619;53.784;10.440;2023-03-19T07:40:34;3.00;;;2.90;;
7154;SDS011;3619;53.784;10.440;2023-03-19T07:43:01;3.67;;;3.57;;
7154;SDS011;3619;53.784;10.440;2023-03-19T07:45:36;3.53;;;3.43;;
7154;SDS011;3619;53.784;10.440;2023-03-19T07:48:03;3.53;;;3.43;;
7154;SDS011;3619;53.784;10.440;2023-03-19T07:50:32;3.57;;;3.47;;
7154;SDS011;3619;53.784;10.440;2023-03-19T07:53:01;3.40;;;3.30;;
7154;SDS011;3619;53.784;10.440;2023-03-19T07:55:29;3.33;;;3.23;;
7154;SDS011;3619;53.784;10.440;2023-03-19T07:57:56;3.43;;;3.33;;
7154;SDS011;3619;53.784;10.440;2023-03-19T08:00:23;2.77;;;2.67;;
7154;SDS011;3619;53.784;10.440;2023-03-19T08:02:53;2.60;;;2.50;;
7154;SDS011;3619;53.784;10.440;2023-03-19T08:05:19;2.67;;;2.57;;
7154;SDS011;3619;53.784;10.440;2023-03-19T08:07:47;2.53;;;2.43;;
7154;SDS011;3619;53.784;10.440;2023-03-19T08:10:16;3.33;;;3.23;;
7154;SDS011;3619;53.784;10.440;2023-03-19T08:12:43;3.00;;;2.90;;
7154;SDS011;3619;53.784;10.440;2023-03-19T08:15:10;3.37;;;3.27;;
7154;SDS011;3619;53.784;10.440;2023-03-19T08:17:40;3.17;;;3.07;;
7154;SDS011;3619;53.784;10.440;2023-03-19T08:20:08;3.13;;;3.03;;
7154;SDS011;3619;53.784;10.440;2023-03-19T08:22:37;3.33;;;3.23;;
7154;SDS011;3619;53.784;10.440;2023-03-19T08:25:09;3.30;;;3.20;;
7154;SDS011;3619;53.784;10.440;2023-03-19T08:27:41;3.13;;;3.03;;
7154;SDS011;3619;53.784;10.440;2023-03-19T08:30:09;2.73;;;2.63;;
7154;SDS011;3619;53.784;10.440;2023-03-19T08:32:38;2.80;;;2.70;;
7154;SDS011;3619;53.784;10.440;2023-03-19T08:35:05;2.17;;;2.07;;
7154;SDS011;3619;53.784;10.440;2023-03-19T08:37:37;2.23;;;2.13;;
7154;SDS011;3619;53.784;10.440;2023-03-19T08:40:05;1.80;;;1.80;;
7154;SDS011;3619;53.784;10.440;2023-03-19T08:42:34;2.00;;;1.90;;
7154;SDS011;3619;53.784;10.440;2023-03-19T08:45:07;2.30;;;2.20;;
7154;SDS011;3619;53.784;10.440;2023-03-19T08:47:35;1.60;;;1.60;;
7154;SDS011;3619;53.784;10.440;2023-03-19T08:50:02;1.67;;;1.67;;
7154;SDS011;3619;53.784;10.440;2023-03-19T08:52:29;1.93;;;1.90;;
7154;SDS011;3619;53.784;10.440;2023-03-19T08:54:58;1.50;;;1.50;;
7154;SDS011;3619;53.784;10.440;2023-03-19T08:57:25;1.43;;;1.43;;
7154;SDS011;3619;53.784;10.440;2023-03-19T08:59:52;1.30;;;1.30;;
7154;SDS011;3619;53.784;10.440;2023-03-19T09:02:21;1.47;;;1.47;;
7154;SDS011;3619;53.784;10.440;2023-03-19T09:04:48;1.40;;;1.40;;
7154;SDS011;3619;53.784;10.440;2023-03-19T09:07:15;1.30;;;1.30;;
7154;SDS011;3619;53.784;10.440;2023-03-19T09:09:42;1.33;;;1.33;;
7154;SDS011;3619;53.784;10.440;2023-03-19T09:12:10;1.30;;;1.30;;
7154;SDS011;3619;53.784;10.440;2023-03-19T09:14:39;1.40;;;1.40;;
7154;SDS011;3619;53.784;10.440;2023-03-19T09:17:06;1.43;;;1.43;;
7154;SDS011;3619;53.784;10.440;2023-03-19T09:19:36;1.30;;;1.30;;
7154;SDS011;3619;53.784;10.440;2023-03-19T09:22:03;1.40;;;1.40;;
7154;SDS011;3619;53.784;10.440;2023-03-19T09:24:30;1.60;;;1.60;;
7154;SDS011;3619;53.784;10.440;2023-03-19T09:27:00;1.27;;;1.27;;
7154;SDS011;3619;53.784;10.440;2023-03-19T09:29:27;1.20;;;1.20;;
7154;SDS011;3619;53.784;10.440;2023-03-19T09:32:00;1.40;;;1.40;;
7154;SDS011;3619;53.784;10.440;2023-03-19T09:34:33;1.67;;;1.67;;
7154;SDS011;3619;53.784;10.440;2023-03-19T09:37:03;1.20;;;1.20;;
7154;SDS011;3619;53.784;10.440;2023-03-19T09:39:29;1.20;;;1.20;;
7154;SDS011;3619;53.784;10.440;2023-03-19T09:42:04;1.40;;;1.40;;
7154;SDS011;3619;53.784;10.440;2023-03-19T09:44:40;1.23;;;1.23;;
7154;SDS011;3619;53.784;10.440;2023-03-19T09:47:18;1.20;;;1.20;;
7154;SDS011;3619;53.784;10.440;2023-03-19T09:49:52;1.20;;;1.20;;
7154;SDS011;3619;53.784;10.440;2023-03-19T09:52:27;1.23;;;1.23;;
7154;SDS011;3619;53.784;10.440;2023-03-19T09:55:02;1.27;;;1.27;;
7154;SDS011;3619;53.784;10.440;2023-03-19T09:57:41;1.43;;;1.43;;
7154;SDS011;3619;53.784;10.440;2023-03-19T10:00:20;1.53;;;1.53;;
7154;SDS011;3619;53.784;10.440;2023-03-19T10:02:51;1.50;;;1.50;;
7154;SDS011;3619;53.784;10.440;2023-03-19T10:05:25;1.50;;;1.50;;
7154;SDS011;3619;53.784;10.440;2023-03-19T10:08:16;1.60;;;1.60;;
7154;SDS011;3619;53.784;10.440;2023-03-19T10:11:05;1.50;;;1.50;;
7154;SDS011;3619;53.784;10.440;2023-03-19T10:13:46;1.50;;;1.50;;
7154;SDS011;3619;53.784;10.440;2023-03-19T10:16:26;1.50;;;1.50;;
7154;SDS011;3619;53.784;10.440;2023-03-19T10:18:57;1.77;;;1.77;;
7154;SDS011;3619;53.784;10.440;2023-03-19T10:21:27;1.53;;;1.53;;
7154;SDS011;3619;53.784;10.440;2023-03-19T10:24:00;1.37;;;1.37;;
7154;SDS011;3619;53.784;10.440;2023-03-19T10:26:33;1.40;;;1.40;;
7154;SDS011;3619;53.784;10.440;2023-03-19T10:29:05;1.50;;;1.50;;
7154;SDS011;3619;53.784;10.440;2023-03-19T10:34:29;1.40;;;1.40;;
7154;SDS011;3619;53.784;10.440;2023-03-19T10:37:00;1.60;;;1.60;;
7154;SDS011;3619;53.784;10.440;2023-03-19T10:39:31;1.60;;;1.60;;
7154;SDS011;3619;53.784;10.440;2023-03-19T10:42:30;1.30;;;1.30;;
7154;SDS011;3619;53.784;10.440;2023-03-19T10:45:13;1.40;;;1.40;;
7154;SDS011;3619;53.784;10.440;2023-03-19T10:47:46;1.60;;;1.60;;
7154;SDS011;3619;53.784;10.440;2023-03-19T10:50:16;1.63;;;1.63;;
7154;SDS011;3619;53.784;10.440;2023-03-19T10:52:44;1.50;;;1.50;;
7154;SDS011;3619;53.784;10.440;2023-03-19T10:55:18;1.40;;;1.40;;
7154;SDS011;3619;53.784;10.440;2023-03-19T10:58:00;1.37;;;1.37;;
7154;SDS011;3619;53.784;10.440;2023-03-19T11:00:37;1.40;;;1.40;;
7154;SDS011;3619;53.784;10.440;2023-03-19T11:03:09;1.40;;;1.40;;
7154;SDS011;3619;53.784;10.440;2023-03-19T11:06:00;1.10;;;1.10;;
7154;SDS011;3619;53.784;10.440;2023-03-19T11:08:32;1.20;;;1.20;;
7154;SDS011;3619;53.784;10.440;2023-03-19T11:11:02;1.27;;;1.27;;
7154;SDS011;3619;53.784;10.440;2023-03-19T11:13:29;1.27;;;1.27;;
7154;SDS011;3619;53.784;10.440;2023-03-19T11:16:00;1.10;;;1.10;;
7154;SDS011;3619;53.784;10.440;2023-03-19T11:18:35;1.50;;;1.50;;
7154;SDS011;3619;53.784;10.440;2023-03-19T11:21:07;1.30;;;1.30;;
7154;SDS011;3619;53.784;10.440;2023-03-19T11:23:50;1.17;;;1.17;;
7154;SDS011;3619;53.784;10.440;2023-03-19T11:26:20;1.17;;;1.17;;
7154;SDS011;3619;53.784;10.440;2023-03-19T11:28:49;1.30;;;1.30;;
7154;SDS011;3619;53.784;10.440;2023-03-19T11:31:19;1.37;;;1.37;;
7154;SDS011;3619;53.784;10.440;2023-03-19T11:33:56;1.10;;;1.10;;
7154;SDS011;3619;53.784;10.440;2023-03-19T11:36:43;0.97;;;0.97;;
7154;SDS011;3619;53.784;10.440;2023-03-19T11:39:20;1.10;;;1.10;;
7154;SDS011;3619;53.784;10.440;2023-03-19T11:42:01;1.00;;;1.00;;
7154;SDS011;3619;53.784;10.440;2023-03-19T11:44:51;1.03;;;1.03;;
7154;SDS011;3619;53.784;10.440;2023-03-19T11:47:26;1.10;;;1.10;;
7154;SDS011;3619;53.784;10.440;2023-03-19T11:50:02;1.20;;;1.20;;
7154;SDS011;3619;53.784;10.440;2023-03-19T11:52:49;1.20;;;1.20;;
7154;SDS011;3619;53.784;10.440;2023-03-19T11:55:27;1.20;;;1.20;;
7154;SDS011;3619;53.784;10.440;2023-03-19T11:58:11;1.10;;;1.10;;
7154;SDS011;3619;53.784;10.440;2023-03-19T12:00:55;1.20;;;1.20;;
7154;SDS011;3619;53.784;10.440;2023-03-19T12:06:30;1.00;;;1.00;;
7154;SDS011;3619;53.784;10.440;2023-03-19T12:09:08;1.30;;;1.30;;
7154;SDS011;3619;53.784;10.440;2023-03-19T12:11:45;1.20;;;1.20;;
7154;SDS011;3619;53.784;10.440;2023-03-19T12:14:25;1.30;;;1.30;;
7154;SDS011;3619;53.784;10.440;2023-03-19T12:17:07;0.90;;;0.90;;
7154;SDS011;3619;53.784;10.440;2023-03-19T12:23:07;1.20;;;1.20;;
7154;SDS011;3619;53.784;10.440;2023-03-19T12:25:44;1.27;;;1.27;;
7154;SDS011;3619;53.784;10.440;2023-03-19T12:28:28;1.13;;;1.13;;
7154;SDS011;3619;53.784;10.440;2023-03-19T12:31:07;0.97;;;0.97;;
7154;SDS011;3619;53.784;10.440;2023-03-19T12:33:54;1.20;;;1.20;;
7154;SDS011;3619;53.784;10.440;2023-03-19T12:36:30;1.13;;;1.13;;
7154;SDS011;3619;53.784;10.440;2023-03-19T12:39:03;1.10;;;1.10;;
7154;SDS011;3619;53.784;10.440;2023-03-19T12:41:41;1.10;;;1.10;;
7154;SDS011;3619;53.784;10.440;2023-03-19T12:44:12;1.00;;;1.00;;
7154;SDS011;3619;53.784;10.440;2023-03-19T12:46:47;1.20;;;1.20;;
7154;SDS011;3619;53.784;10.440;2023-03-19T12:49:20;0.93;;;0.93;;
7154;SDS011;3619;53.784;10.440;2023-03-19T12:51:52;1.20;;;1.20;;
7154;SDS011;3619;53.784;10.440;2023-03-19T12:54:22;1.27;;;1.27;;
7154;SDS011;3619;53.784;10.440;2023-03-19T12:56:54;1.50;;;1.50;;
7154;SDS011;3619;53.784;10.440;2023-03-19T12:59:27;1.30;;;1.30;;
7154;SDS011;3619;53.784;10.440;2023-03-19T13:02:00;1.50;;;1.50;;
7154;SDS011;3619;53.784;10.440;2023-03-19T13:04:35;1.10;;;1.10;;
7154;SDS011;3619;53.784;10.440;2023-03-19T13:07:37;1.20;;;1.20;;
7154;SDS011;3619;53.784;10.440;2023-03-19T13:10:15;1.20;;;1.20;;
7154;SDS011;3619;53.784;10.440;2023-03-19T13:12:47;1.30;;;1.30;;
7154;SDS011;3619;53.784;10.440;2023-03-19T13:15:20;1.30;;;1.30;;
7154;SDS011;3619;53.784;10.440;2023-03-19T13:18:00;1.20;;;1.20;;
7154;SDS011;3619;53.784;10.440;2023-03-19T13:20:48;1.10;;;1.10;;
7154;SDS011;3619;53.784;10.440;2023-03-19T13:23:23;1.43;;;1.43;;
7154;SDS011;3619;53.784;10.440;2023-03-19T13:25:53;1.50;;;1.50;;
7154;SDS011;3619;53.784;10.440;2023-03-19T13:28:25;1.40;;;1.40;;
7154;SDS011;3619;53.784;10.440;2023-03-19T13:30:57;1.30;;;1.30;;
7154;SDS011;3619;53.784;10.440;2023-03-19T13:33:27;1.33;;;1.33;;
7154;SDS011;3619;53.784;10.440;2023-03-19T13:35:55;1.20;;;1.20;;
7154;SDS011;3619;53.784;10.440;2023-03-19T13:38:26;1.23;;;1.23;;
7154;SDS011;3619;53.784;10.440;2023-03-19T13:41:01;1.27;;;1.27;;
7154;SDS011;3619;53.784;10.440;2023-03-19T13:43:39;1.20;;;1.20;;
7154;SDS011;3619;53.784;10.440;2023-03-19T13:46:30;1.00;;;1.00;;
7154;SDS011;3619;53.784;10.440;2023-03-19T13:49:29;1.00;;;1.00;;
7154;SDS011;3619;53.784;10.440;2023-03-19T13:55:18;0.90;;;0.90;;
7154;SDS011;3619;53.784;10.440;2023-03-19T13:57:57;1.20;;;1.20;;
7154;SDS011;3619;53.784;10.440;2023-03-19T14:00:55;1.13;;;1.13;;
7154;SDS011;3619;53.784;10.440;2023-03-19T14:03:25;1.10;;;1.10;;
7154;SDS011;3619;53.784;10.440;2023-03-19T14:05:59;1.00;;;1.00;;
7154;SDS011;3619;53.784;10.440;2023-03-19T14:08:28;1.20;;;1.20;;
7154;SDS011;3619;53.784;10.440;2023-03-19T14:11:01;1.10;;;1.10;;
7154;SDS011;3619;53.784;10.440;2023-03-19T14:13:31;1.30;;;1.30;;
7154;SDS011;3619;53.784;10.440;2023-03-19T14:16:05;1.10;;;1.10;;
7154;SDS011;3619;53.784;10.440;2023-03-19T14:18:38;1.10;;;1.10;;
7154;SDS011;3619;53.784;10.440;2023-03-19T14:21:10;1.30;;;1.30;;
7154;SDS011;3619;53.784;10.440;2023-03-19T14:23:50;1.23;;;1.23;;
7154;SDS011;3619;53.784;10.440;2023-03-19T14:26:20;1.47;;;1.47;;
7154;SDS011;3619;53.784;10.440;2023-03-19T14:28:56;1.40;;;1.40;;
7154;SDS011;3619;53.784;10.440;2023-03-19T14:31:30;1.40;;;1.40;;
7154;SDS011;3619;53.784;10.440;2023-03-19T14:34:01;2.20;;;2.10;;
7154;SDS011;3619;53.784;10.440;2023-03-19T14:36:37;1.60;;;1.60;;
7154;SDS011;3619;53.784;10.440;2023-03-19T14:39:15;1.40;;;1.40;;
7154;SDS011;3619;53.784;10.440;2023-03-19T14:41:47;1.60;;;1.60;;
7154;SDS011;3619;53.784;10.440;2023-03-19T14:44:29;1.80;;;1.80;;
7154;SDS011;3619;53.784;10.440;2023-03-19T14:47:30;1.70;;;1.70;;
7154;SDS011;3619;53.784;10.440;2023-03-19T14:50:23;1.60;;;1.60;;
7154;SDS011;3619;53.784;10.440;2023-03-19T14:53:07;1.70;;;1.70;;
7154;SDS011;3619;53.784;10.440;2023-03-19T14:55:40;1.40;;;1.40;;
7154;SDS011;3619;53.784;10.440;2023-03-19T14:58:08;1.40;;;1.40;;
7154;SDS011;3619;53.784;10.440;2023-03-19T15:00:39;1.50;;;1.50;;
7154;SDS011;3619;53.784;10.440;2023-03-19T15:05:56;2.00;;;1.90;;
7154;SDS011;3619;53.784;10.440;2023-03-19T15:08:26;2.53;;;2.43;;
7154;SDS011;3619;53.784;10.440;2023-03-19T15:10:59;2.47;;;2.37;;
7154;SDS011;3619;53.784;10.440;2023-03-19T15:13:35;2.33;;;2.23;;
7154;SDS011;3619;53.784;10.440;2023-03-19T15:16:19;2.27;;;2.17;;
7154;SDS011;3619;53.784;10.440;2023-03-19T15:19:01;1.73;;;1.73;;
7154;SDS011;3619;53.784;10.440;2023-03-19T15:21:28;2.03;;;1.93;;
7154;SDS011;3619;53.784;10.440;2023-03-19T15:26:44;2.20;;;2.10;;
7154;SDS011;3619;53.784;10.440;2023-03-19T15:29:12;2.87;;;2.77;;
7154;SDS011;3619;53.784;10.440;2023-03-19T15:31:43;2.67;;;2.57;;
7154;SDS011;3619;53.784;10.440;2023-03-19T15:34:17;2.67;;;2.57;;
7154;SDS011;3619;53.784;10.440;2023-03-19T15:36:46;3.10;;;3.00;;
7154;SDS011;3619;53.784;10.440;2023-03-19T15:39:16;2.50;;;2.40;;
7154;SDS011;3619;53.784;10.440;2023-03-19T15:41:46;1.83;;;1.83;;
7154;SDS011;3619;53.784;10.440;2023-03-19T15:44:15;2.33;;;2.23;;
7154;SDS011;3619;53.784;10.440;2023-03-19T15:46:45;1.97;;;1.90;;
7154;SDS011;3619;53.784;10.440;2023-03-19T15:49:14;2.00;;;1.90;;
7154;SDS011;3619;53.784;10.440;2023-03-19T15:51:44;2.13;;;2.03;;
7154;SDS011;3619;53.784;10.440;2023-03-19T15:54:17;2.30;;;2.20;;
7154;SDS011;3619;53.784;10.440;2023-03-19T15:56:44;2.13;;;2.03;;
7154;SDS011;3619;53.784;10.440;2023-03-19T15:59:13;2.20;;;2.10;;
7154;SDS011;3619;53.784;10.440;2023-03-19T16:01:42;2.27;;;2.17;;
7154;SDS011;3619;53.784;10.440;2023-03-19T16:04:11;2.57;;;2.47;;
7154;SDS011;3619;53.784;10.440;2023-03-19T16:06:43;2.33;;;2.23;;
7154;SDS011;3619;53.784;10.440;2023-03-19T16:09:16;2.37;;;2.27;;